sensor_id;sensor_type;location;lat;lon;timestamp;temperature;humidity
73586;DHT22;61865;50.232;18.614;2022-09-01T00:01:47;12.60;99.90
73586;DHT22;61865;50.232;18.614;2022-09-01T00:04:13;12.70;99.90
73586;DHT22;61865;50.232;18.614;2022-09-01T00:06:35;12.70;99.90
73586;DHT22;61865;50.232;18.614;2022-09-01T00:09:00;12.70;99.90
73586;DHT22;61865;50.232;18.614;2022-09-01T00:11:24;12.70;99.90
73586;DHT22;61865;50.232;18.614;2022-09-01T00:13:48;12.70;99.90
73586;DHT22;61865;50.232;18.614;2022-09-01T00:16:10;12.70;99.90
73586;DHT22;61865;50.232;18.614;2022-09-01T00:18:33;12.70;99.90
73586;DHT22;61865;50.232;18.614;2022-09-01T00:20:57;12.70;99.90
73586;DHT22;61865;50.232;18.614;2022-09-01T00:23:19;12.70;99.90
73586;DHT22;61865;50.232;18.614;2022-09-01T00:25:41;12.70;99.90
73586;DHT22;61865;50.232;18.614;2022-09-01T00:28:03;12.70;99.90
73586;DHT22;61865;50.232;18.614;2022-09-01T00:30:25;12.70;99.90
73586;DHT22;61865;50.232;18.614;2022-09-01T00:32:48;12.60;99.90
73586;DHT22;61865;50.232;18.614;2022-09-01T00:35:10;12.60;99.90
73586;DHT22;61865;50.232;18.614;2022-09-01T00:37:33;12.60;99.90
73586;DHT22;61865;50.232;18.614;2022-09-01T00:39:55;12.60;99.90
73586;DHT22;61865;50.232;18.614;2022-09-01T00:42:17;12.60;99.90
73586;DHT22;61865;50.232;18.614;2022-09-01T00:44:39;12.60;99.90
73586;DHT22;61865;50.232;18.614;2022-09-01T00:47:01;12.60;99.90
73586;DHT22;61865;50.232;18.614;2022-09-01T00:49:29;12.50;99.90
73586;DHT22;61865;50.232;18.614;2022-09-01T00:51:58;12.60;99.90
73586;DHT22;61865;50.232;18.614;2022-09-01T00:54:24;12.50;99.90
73586;DHT22;61865;50.232;18.614;2022-09-01T00:56:47;12.50;99.90
73586;DHT22;61865;50.232;18.614;2022-09-01T00:59:09;12.50;99.90
73586;DHT22;61865;50.232;18.614;2022-09-01T01:01:33;12.40;99.90
73586;DHT22;61865;50.232;18.614;2022-09-01T01:03:56;12.50;99.90
73586;DHT22;61865;50.232;18.614;2022-09-01T01:06:22;12.50;99.90
73586;DHT22;61865;50.232;18.614;2022-09-01T01:08:48;12.50;99.90
73586;DHT22;61865;50.232;18.614;2022-09-01T01:11:18;12.50;99.90
73586;DHT22;61865;50.232;18.614;2022-09-01T01:13:48;12.50;99.90
73586;DHT22;61865;50.232;18.614;2022-09-01T01:16:10;12.60;99.90
73586;DHT22;61865;50.232;18.614;2022-09-01T01:18:35;12.60;99.90
73586;DHT22;61865;50.232;18.614;2022-09-01T01:21:01;12.60;99.90
73586;DHT22;61865;50.232;18.614;2022-09-01T01:23:47;12.60;99.90
73586;DHT22;61865;50.232;18.614;2022-09-01T01:26:12;12.50;99.90
73586;DHT22;61865;50.232;18.614;2022-09-01T01:28:36;12.50;99.90
73586;DHT22;61865;50.232;18.614;2022-09-01T01:31:00;12.50;99.90
73586;DHT22;61865;50.232;18.614;2022-09-01T01:33:26;12.50;99.90
73586;DHT22;61865;50.232;18.614;2022-09-01T01:35:50;12.50;99.90
73586;DHT22;61865;50.232;18.614;2022-09-01T01:38:12;12.50;99.90
73586;DHT22;61865;50.232;18.614;2022-09-01T01:40:34;12.50;99.90
73586;DHT22;61865;50.232;18.614;2022-09-01T01:42:58;12.40;99.90
73586;DHT22;61865;50.232;18.614;2022-09-01T01:45:23;12.40;99.90
73586;DHT22;61865;50.232;18.614;2022-09-01T01:47:46;12.40;99.90
73586;DHT22;61865;50.232;18.614;2022-09-01T01:50:09;12.40;99.90
73586;DHT22;61865;50.232;18.614;2022-09-01T01:52:32;12.40;99.90
73586;DHT22;61865;50.232;18.614;2022-09-01T01:54:54;12.40;99.90
73586;DHT22;61865;50.232;18.614;2022-09-01T01:57:16;12.40;99.90
73586;DHT22;61865;50.232;18.614;2022-09-01T01:59:39;12.40;99.90
73586;DHT22;61865;50.232;18.614;2022-09-01T02:02:01;12.30;99.90
73586;DHT22;61865;50.232;18.614;2022-09-01T02:04:28;12.30;99.90
73586;DHT22;61865;50.232;18.614;2022-09-01T02:06:53;12.30;99.90
73586;DHT22;61865;50.232;18.614;2022-09-01T02:09:18;12.30;99.90
73586;DHT22;61865;50.232;18.614;2022-09-01T02:11:40;12.30;99.90
73586;DHT22;61865;50.232;18.614;2022-09-01T02:14:04;12.30;99.90
73586;DHT22;61865;50.232;18.614;2022-09-01T02:16:30;12.30;99.90
73586;DHT22;61865;50.232;18.614;2022-09-01T02:18:52;12.30;99.90
73586;DHT22;61865;50.232;18.614;2022-09-01T02:21:16;12.20;99.90
73586;DHT22;61865;50.232;18.614;2022-09-01T02:23:40;12.20;99.90
73586;DHT22;61865;50.232;18.614;2022-09-01T02:26:02;12.20;99.90
73586;DHT22;61865;50.232;18.614;2022-09-01T02:28:24;12.20;99.90
73586;DHT22;61865;50.232;18.614;2022-09-01T02:30:49;12.10;99.90
73586;DHT22;61865;50.232;18.614;2022-09-01T02:33:15;12.10;99.90
73586;DHT22;61865;50.232;18.614;2022-09-01T02:35:38;12.10;99.90
73586;DHT22;61865;50.232;18.614;2022-09-01T02:38:01;12.10;99.90
73586;DHT22;61865;50.232;18.614;2022-09-01T02:40:23;12.10;99.90
73586;DHT22;61865;50.232;18.614;2022-09-01T02:42:45;12.10;99.90
73586;DHT22;61865;50.232;18.614;2022-09-01T02:45:08;12.10;99.90
73586;DHT22;61865;50.232;18.614;2022-09-01T02:47:31;12.10;99.90
73586;DHT22;61865;50.232;18.614;2022-09-01T02:49:54;12.00;99.90
73586;DHT22;61865;50.232;18.614;2022-09-01T02:52:18;12.00;99.90
73586;DHT22;61865;50.232;18.614;2022-09-01T02:54:40;12.00;99.90
73586;DHT22;61865;50.232;18.614;2022-09-01T02:57:05;11.90;99.90
73586;DHT22;61865;50.232;18.614;2022-09-01T02:59:29;11.90;99.90
73586;DHT22;61865;50.232;18.614;2022-09-01T03:01:53;11.90;99.90
73586;DHT22;61865;50.232;18.614;2022-09-01T03:04:21;11.90;99.90
73586;DHT22;61865;50.232;18.614;2022-09-01T03:06:45;11.90;99.90
73586;DHT22;61865;50.232;18.614;2022-09-01T03:09:10;11.90;99.90
73586;DHT22;61865;50.232;18.614;2022-09-01T03:11:35;11.90;99.90
73586;DHT22;61865;50.232;18.614;2022-09-01T03:13:57;11.90;99.90
73586;DHT22;61865;50.232;18.614;2022-09-01T03:16:19;11.90;99.90
73586;DHT22;61865;50.232;18.614;2022-09-01T03:18:42;11.90;99.90
73586;DHT22;61865;50.232;18.614;2022-09-01T03:21:05;11.90;99.90
73586;DHT22;61865;50.232;18.614;2022-09-01T03:23:30;11.90;99.90
73586;DHT22;61865;50.232;18.614;2022-09-01T03:25:53;11.90;99.90
73586;DHT22;61865;50.232;18.614;2022-09-01T03:28:15;11.80;99.90
73586;DHT22;61865;50.232;18.614;2022-09-01T03:30:43;11.80;99.90
73586;DHT22;61865;50.232;18.614;2022-09-01T03:33:07;11.70;99.90
73586;DHT22;61865;50.232;18.614;2022-09-01T03:35:29;11.70;99.90
73586;DHT22;61865;50.232;18.614;2022-09-01T03:37:52;11.70;99.90
73586;DHT22;61865;50.232;18.614;2022-09-01T03:40:16;11.60;99.90
73586;DHT22;61865;50.232;18.614;2022-09-01T03:42:39;11.70;99.90
73586;DHT22;61865;50.232;18.614;2022-09-01T03:45:01;11.70;99.90
73586;DHT22;61865;50.232;18.614;2022-09-01T03:47:28;11.70;99.90
73586;DHT22;61865;50.232;18.614;2022-09-01T03:49:50;11.70;99.90
73586;DHT22;61865;50.232;18.614;2022-09-01T03:52:14;11.70;99.90
73586;DHT22;61865;50.232;18.614;2022-09-01T03:54:37;11.70;99.90
73586;DHT22;61865;50.232;18.614;2022-09-01T03:57:00;11.70;99.90
73586;DHT22;61865;50.232;18.614;2022-09-01T03:59:26;11.70;99.90
73586;DHT22;61865;50.232;18.614;2022-09-01T04:01:49;11.70;99.90
73586;DHT22;61865;50.232;18.614;2022-09-01T04:04:12;11.70;99.90
73586;DHT22;61865;50.232;18.614;2022-09-01T04:06:36;11.70;99.90
73586;DHT22;61865;50.232;18.614;2022-09-01T04:08:57;11.70;99.90
73586;DHT22;61865;50.232;18.614;2022-09-01T04:11:22;11.70;99.90
73586;DHT22;61865;50.232;18.614;2022-09-01T04:13:46;11.60;99.90
73586;DHT22;61865;50.232;18.614;2022-09-01T04:16:16;11.60;99.90
73586;DHT22;61865;50.232;18.614;2022-09-01T04:18:59;11.60;99.90
73586;DHT22;61865;50.232;18.614;2022-09-01T04:21:20;11.60;99.90
73586;DHT22;61865;50.232;18.614;2022-09-01T04:23:42;11.70;99.90
73586;DHT22;61865;50.232;18.614;2022-09-01T04:26:06;11.70;99.90
73586;DHT22;61865;50.232;18.614;2022-09-01T04:28:31;11.70;99.90
73586;DHT22;61865;50.232;18.614;2022-09-01T04:30:58;11.80;99.90
73586;DHT22;61865;50.232;18.614;2022-09-01T04:33:27;11.80;99.90
73586;DHT22;61865;50.232;18.614;2022-09-01T04:35:56;11.80;99.90
73586;DHT22;61865;50.232;18.614;2022-09-01T04:38:21;11.80;99.90
73586;DHT22;61865;50.232;18.614;2022-09-01T04:40:44;11.90;99.90
73586;DHT22;61865;50.232;18.614;2022-09-01T04:43:06;11.90;99.90
73586;DHT22;61865;50.232;18.614;2022-09-01T04:45:28;12.00;99.90
73586;DHT22;61865;50.232;18.614;2022-09-01T04:47:53;12.00;99.90
73586;DHT22;61865;50.232;18.614;2022-09-01T04:50:15;12.10;99.90
73586;DHT22;61865;50.232;18.614;2022-09-01T04:52:37;12.10;99.90
73586;DHT22;61865;50.232;18.614;2022-09-01T04:54:59;12.20;99.90
73586;DHT22;61865;50.232;18.614;2022-09-01T04:57:22;12.20;99.90
73586;DHT22;61865;50.232;18.614;2022-09-01T04:59:48;12.30;99.90
73586;DHT22;61865;50.232;18.614;2022-09-01T05:02:10;12.30;99.90
73586;DHT22;61865;50.232;18.614;2022-09-01T05:04:34;12.40;99.90
73586;DHT22;61865;50.232;18.614;2022-09-01T05:06:57;12.50;99.90
73586;DHT22;61865;50.232;18.614;2022-09-01T05:09:20;12.60;99.90
73586;DHT22;61865;50.232;18.614;2022-09-01T05:11:44;12.60;99.90
73586;DHT22;61865;50.232;18.614;2022-09-01T05:14:08;12.70;99.90
73586;DHT22;61865;50.232;18.614;2022-09-01T05:16:30;12.80;99.90
73586;DHT22;61865;50.232;18.614;2022-09-01T05:18:53;12.90;99.90
73586;DHT22;61865;50.232;18.614;2022-09-01T05:21:19;13.00;99.90
73586;DHT22;61865;50.232;18.614;2022-09-01T05:23:44;13.00;99.90
73586;DHT22;61865;50.232;18.614;2022-09-01T05:26:12;13.10;99.90
73586;DHT22;61865;50.232;18.614;2022-09-01T05:28:36;13.20;99.90
73586;DHT22;61865;50.232;18.614;2022-09-01T05:30:59;13.30;99.90
73586;DHT22;61865;50.232;18.614;2022-09-01T05:33:21;13.40;99.90
73586;DHT22;61865;50.232;18.614;2022-09-01T05:35:52;13.40;99.90
73586;DHT22;61865;50.232;18.614;2022-09-01T05:38:16;13.50;99.90
73586;DHT22;61865;50.232;18.614;2022-09-01T05:40:39;13.60;99.90
73586;DHT22;61865;50.232;18.614;2022-09-01T05:43:01;13.70;99.90
73586;DHT22;61865;50.232;18.614;2022-09-01T05:45:23;13.80;99.90
73586;DHT22;61865;50.232;18.614;2022-09-01T05:47:46;14.00;99.90
73586;DHT22;61865;50.232;18.614;2022-09-01T05:50:08;14.10;99.90
73586;DHT22;61865;50.232;18.614;2022-09-01T05:52:32;14.20;99.90
73586;DHT22;61865;50.232;18.614;2022-09-01T05:54:56;14.20;99.90
73586;DHT22;61865;50.232;18.614;2022-09-01T05:57:19;14.30;99.90
73586;DHT22;61865;50.232;18.614;2022-09-01T05:59:41;14.40;99.90
73586;DHT22;61865;50.232;18.614;2022-09-01T06:02:04;14.50;99.90
73586;DHT22;61865;50.232;18.614;2022-09-01T06:04:28;14.60;99.90
73586;DHT22;61865;50.232;18.614;2022-09-01T06:06:51;14.60;99.90
73586;DHT22;61865;50.232;18.614;2022-09-01T06:09:15;14.60;99.90
73586;DHT22;61865;50.232;18.614;2022-09-01T06:11:40;14.60;99.90
73586;DHT22;61865;50.232;18.614;2022-09-01T06:14:02;14.70;99.90
73586;DHT22;61865;50.232;18.614;2022-09-01T06:16:26;14.70;99.90
73586;DHT22;61865;50.232;18.614;2022-09-01T06:18:48;14.70;99.90
73586;DHT22;61865;50.232;18.614;2022-09-01T06:21:12;14.80;99.90
73586;DHT22;61865;50.232;18.614;2022-09-01T06:23:34;14.90;99.90
73586;DHT22;61865;50.232;18.614;2022-09-01T06:25:56;15.00;99.90
73586;DHT22;61865;50.232;18.614;2022-09-01T06:28:20;15.10;99.90
73586;DHT22;61865;50.232;18.614;2022-09-01T06:30:43;15.20;99.90
73586;DHT22;61865;50.232;18.614;2022-09-01T06:33:08;15.20;98.40
73586;DHT22;61865;50.232;18.614;2022-09-01T06:35:30;15.40;99.90
73586;DHT22;61865;50.232;18.614;2022-09-01T06:37:52;15.50;97.10
73586;DHT22;61865;50.232;18.614;2022-09-01T06:40:16;15.60;94.50
73586;DHT22;61865;50.232;18.614;2022-09-01T06:42:38;15.70;97.40
73586;DHT22;61865;50.232;18.614;2022-09-01T06:45:02;15.80;96.20
73586;DHT22;61865;50.232;18.614;2022-09-01T06:47:29;15.90;92.90
73586;DHT22;61865;50.232;18.614;2022-09-01T06:49:51;16.10;91.90
73586;DHT22;61865;50.232;18.614;2022-09-01T06:52:15;16.20;91.40
73586;DHT22;61865;50.232;18.614;2022-09-01T06:54:37;16.30;89.70
73586;DHT22;61865;50.232;18.614;2022-09-01T06:57:03;16.40;90.10
73586;DHT22;61865;50.232;18.614;2022-09-01T06:59:27;16.50;86.10
73586;DHT22;61865;50.232;18.614;2022-09-01T07:01:52;16.50;86.60
73586;DHT22;61865;50.232;18.614;2022-09-01T07:04:14;16.60;89.70
73586;DHT22;61865;50.232;18.614;2022-09-01T07:06:41;16.70;86.70
73586;DHT22;61865;50.232;18.614;2022-09-01T07:09:03;16.80;88.00
73586;DHT22;61865;50.232;18.614;2022-09-01T07:11:29;16.80;88.00
73586;DHT22;61865;50.232;18.614;2022-09-01T07:13:54;16.80;84.10
73586;DHT22;61865;50.232;18.614;2022-09-01T07:16:17;16.80;83.50
73586;DHT22;61865;50.232;18.614;2022-09-01T07:18:43;16.80;80.70
73586;DHT22;61865;50.232;18.614;2022-09-01T07:21:05;16.60;83.80
73586;DHT22;61865;50.232;18.614;2022-09-01T07:23:27;16.60;83.00
73586;DHT22;61865;50.232;18.614;2022-09-01T07:25:50;16.50;83.10
73586;DHT22;61865;50.232;18.614;2022-09-01T07:28:16;16.50;82.20
73586;DHT22;61865;50.232;18.614;2022-09-01T07:30:43;16.40;83.70
73586;DHT22;61865;50.232;18.614;2022-09-01T07:33:07;16.50;81.70
73586;DHT22;61865;50.232;18.614;2022-09-01T07:35:32;16.50;82.50
73586;DHT22;61865;50.232;18.614;2022-09-01T07:37:57;16.60;84.20
73586;DHT22;61865;50.232;18.614;2022-09-01T07:40:19;16.60;82.80
73586;DHT22;61865;50.232;18.614;2022-09-01T07:42:41;16.60;85.50
73586;DHT22;61865;50.232;18.614;2022-09-01T07:45:04;16.60;81.10
73586;DHT22;61865;50.232;18.614;2022-09-01T07:47:29;16.50;84.90
73586;DHT22;61865;50.232;18.614;2022-09-01T07:49:51;16.50;83.60
73586;DHT22;61865;50.232;18.614;2022-09-01T07:52:14;16.60;83.00
73586;DHT22;61865;50.232;18.614;2022-09-01T07:54:37;16.60;80.40
73586;DHT22;61865;50.232;18.614;2022-09-01T07:56:59;16.70;77.50
73586;DHT22;61865;50.232;18.614;2022-09-01T07:59:21;16.70;80.00
73586;DHT22;61865;50.232;18.614;2022-09-01T08:01:43;16.80;77.50
73586;DHT22;61865;50.232;18.614;2022-09-01T08:04:06;16.90;76.00
73586;DHT22;61865;50.232;18.614;2022-09-01T08:06:28;16.90;74.20
73586;DHT22;61865;50.232;18.614;2022-09-01T08:08:52;17.00;72.80
73586;DHT22;61865;50.232;18.614;2022-09-01T08:11:15;17.00;69.40
73586;DHT22;61865;50.232;18.614;2022-09-01T08:13:38;17.00;71.30
73586;DHT22;61865;50.232;18.614;2022-09-01T08:16:03;17.10;68.30
73586;DHT22;61865;50.232;18.614;2022-09-01T08:18:24;17.20;70.60
73586;DHT22;61865;50.232;18.614;2022-09-01T08:20:46;17.20;68.00
73586;DHT22;61865;50.232;18.614;2022-09-01T08:23:08;17.30;70.30
73586;DHT22;61865;50.232;18.614;2022-09-01T08:25:33;17.40;69.10
73586;DHT22;61865;50.232;18.614;2022-09-01T08:27:55;17.40;68.90
73586;DHT22;61865;50.232;18.614;2022-09-01T08:30:17;17.40;67.20
73586;DHT22;61865;50.232;18.614;2022-09-01T08:32:39;17.50;68.70
73586;DHT22;61865;50.232;18.614;2022-09-01T08:35:03;17.60;68.20
73586;DHT22;61865;50.232;18.614;2022-09-01T08:37:25;17.60;68.30
73586;DHT22;61865;50.232;18.614;2022-09-01T08:39:47;17.70;66.50
73586;DHT22;61865;50.232;18.614;2022-09-01T08:42:17;17.80;66.60
73586;DHT22;61865;50.232;18.614;2022-09-01T08:44:48;17.70;66.00
73586;DHT22;61865;50.232;18.614;2022-09-01T08:47:14;17.70;66.80
73586;DHT22;61865;50.232;18.614;2022-09-01T08:49:37;17.60;64.80
73586;DHT22;61865;50.232;18.614;2022-09-01T08:52:06;17.40;66.90
73586;DHT22;61865;50.232;18.614;2022-09-01T08:54:36;17.40;68.70
73586;DHT22;61865;50.232;18.614;2022-09-01T08:57:02;17.50;68.10
73586;DHT22;61865;50.232;18.614;2022-09-01T08:59:27;17.60;68.70
73586;DHT22;61865;50.232;18.614;2022-09-01T09:01:54;17.90;69.10
73586;DHT22;61865;50.232;18.614;2022-09-01T09:04:33;18.00;63.90
73586;DHT22;61865;50.232;18.614;2022-09-01T09:07:01;18.20;65.20
73586;DHT22;61865;50.232;18.614;2022-09-01T09:09:29;18.30;62.60
73586;DHT22;61865;50.232;18.614;2022-09-01T09:12:14;18.60;65.20
73586;DHT22;61865;50.232;18.614;2022-09-01T09:14:49;18.90;63.50
73586;DHT22;61865;50.232;18.614;2022-09-01T09:17:18;19.00;60.80
73586;DHT22;61865;50.232;18.614;2022-09-01T09:19:42;18.90;63.30
73586;DHT22;61865;50.232;18.614;2022-09-01T09:22:06;18.90;62.50
73586;DHT22;61865;50.232;18.614;2022-09-01T09:24:32;18.80;61.90
73586;DHT22;61865;50.232;18.614;2022-09-01T09:27:06;18.90;63.50
73586;DHT22;61865;50.232;18.614;2022-09-01T09:29:28;19.10;60.90
73586;DHT22;61865;50.232;18.614;2022-09-01T09:32:02;19.30;61.20
73586;DHT22;61865;50.232;18.614;2022-09-01T09:34:31;19.30;59.80
73586;DHT22;61865;50.232;18.614;2022-09-01T09:36:53;19.50;60.10
73586;DHT22;61865;50.232;18.614;2022-09-01T09:39:17;19.60;58.70
73586;DHT22;61865;50.232;18.614;2022-09-01T09:41:39;19.60;56.90
73586;DHT22;61865;50.232;18.614;2022-09-01T09:44:04;19.60;57.30
73586;DHT22;61865;50.232;18.614;2022-09-01T09:46:33;19.60;58.30
73586;DHT22;61865;50.232;18.614;2022-09-01T09:49:08;19.40;58.00
73586;DHT22;61865;50.232;18.614;2022-09-01T09:51:31;19.40;58.90
73586;DHT22;61865;50.232;18.614;2022-09-01T09:54:09;19.40;57.90
73586;DHT22;61865;50.232;18.614;2022-09-01T09:56:32;19.30;57.60
73586;DHT22;61865;50.232;18.614;2022-09-01T09:58:53;19.30;57.30
73586;DHT22;61865;50.232;18.614;2022-09-01T10:01:29;19.20;58.00
73586;DHT22;61865;50.232;18.614;2022-09-01T10:03:53;19.20;57.60
73586;DHT22;61865;50.232;18.614;2022-09-01T10:06:30;19.10;57.50
73586;DHT22;61865;50.232;18.614;2022-09-01T10:08:52;18.90;56.10
73586;DHT22;61865;50.232;18.614;2022-09-01T10:11:27;18.80;57.70
73586;DHT22;61865;50.232;18.614;2022-09-01T10:13:51;18.80;55.30
73586;DHT22;61865;50.232;18.614;2022-09-01T10:16:21;18.90;53.50
73586;DHT22;61865;50.232;18.614;2022-09-01T10:18:45;19.10;54.70
73586;DHT22;61865;50.232;18.614;2022-09-01T10:21:12;19.40;55.90
73586;DHT22;61865;50.232;18.614;2022-09-01T10:23:37;19.60;55.40
73586;DHT22;61865;50.232;18.614;2022-09-01T10:26:03;19.70;56.80
73586;DHT22;61865;50.232;18.614;2022-09-01T10:28:28;19.80;50.60
73586;DHT22;61865;50.232;18.614;2022-09-01T10:30:53;19.80;52.90
73586;DHT22;61865;50.232;18.614;2022-09-01T10:33:17;19.70;53.70
73586;DHT22;61865;50.232;18.614;2022-09-01T10:35:42;19.60;53.20
73586;DHT22;61865;50.232;18.614;2022-09-01T10:38:07;19.40;54.30
73586;DHT22;61865;50.232;18.614;2022-09-01T10:40:41;19.40;54.50
73586;DHT22;61865;50.232;18.614;2022-09-01T10:43:28;19.50;54.40
73586;DHT22;61865;50.232;18.614;2022-09-01T10:45:53;19.80;53.90
73586;DHT22;61865;50.232;18.614;2022-09-01T10:48:25;20.00;52.20
73586;DHT22;61865;50.232;18.614;2022-09-01T10:50:50;20.20;53.20
73586;DHT22;61865;50.232;18.614;2022-09-01T10:53:37;20.30;52.50
73586;DHT22;61865;50.232;18.614;2022-09-01T10:56:02;20.20;51.40
73586;DHT22;61865;50.232;18.614;2022-09-01T11:01:11;20.00;50.80
73586;DHT22;61865;50.232;18.614;2022-09-01T11:06:55;19.80;51.60
73586;DHT22;61865;50.232;18.614;2022-09-01T11:09:24;19.70;51.80
73586;DHT22;61865;50.232;18.614;2022-09-01T11:12:05;19.80;52.80
73586;DHT22;61865;50.232;18.614;2022-09-01T11:14:32;19.60;53.00
73586;DHT22;61865;50.232;18.614;2022-09-01T11:17:13;19.70;52.70
73586;DHT22;61865;50.232;18.614;2022-09-01T11:19:39;19.60;51.50
73586;DHT22;61865;50.232;18.614;2022-09-01T11:22:09;19.70;52.90
73586;DHT22;61865;50.232;18.614;2022-09-01T11:25:10;19.70;51.30
73586;DHT22;61865;50.232;18.614;2022-09-01T11:27:57;19.70;52.60
73586;DHT22;61865;50.232;18.614;2022-09-01T11:30:20;19.70;50.60
73586;DHT22;61865;50.232;18.614;2022-09-01T11:32:45;19.90;50.00
73586;DHT22;61865;50.232;18.614;2022-09-01T11:35:16;20.10;50.90
73586;DHT22;61865;50.232;18.614;2022-09-01T11:37:39;20.50;50.40
73586;DHT22;61865;50.232;18.614;2022-09-01T11:40:03;20.80;49.60
73586;DHT22;61865;50.232;18.614;2022-09-01T11:42:30;20.80;46.90
73586;DHT22;61865;50.232;18.614;2022-09-01T11:45:01;20.80;47.70
73586;DHT22;61865;50.232;18.614;2022-09-01T11:47:25;20.60;48.50
73586;DHT22;61865;50.232;18.614;2022-09-01T11:49:51;20.40;48.20
73586;DHT22;61865;50.232;18.614;2022-09-01T11:52:14;20.20;48.90
73586;DHT22;61865;50.232;18.614;2022-09-01T11:54:39;20.10;48.90
73586;DHT22;61865;50.232;18.614;2022-09-01T11:57:16;20.00;48.60
73586;DHT22;61865;50.232;18.614;2022-09-01T11:59:38;19.90;49.80
73586;DHT22;61865;50.232;18.614;2022-09-01T12:02:02;19.90;50.00
73586;DHT22;61865;50.232;18.614;2022-09-01T12:04:29;19.80;52.30
73586;DHT22;61865;50.232;18.614;2022-09-01T12:06:55;19.40;52.60
73586;DHT22;61865;50.232;18.614;2022-09-01T12:09:18;19.50;52.70
73586;DHT22;61865;50.232;18.614;2022-09-01T12:11:40;19.70;51.10
73586;DHT22;61865;50.232;18.614;2022-09-01T12:14:04;19.80;49.30
73586;DHT22;61865;50.232;18.614;2022-09-01T12:16:26;19.80;49.70
73586;DHT22;61865;50.232;18.614;2022-09-01T12:18:52;19.80;49.70
73586;DHT22;61865;50.232;18.614;2022-09-01T12:21:20;19.90;50.80
73586;DHT22;61865;50.232;18.614;2022-09-01T12:23:42;20.00;48.60
73586;DHT22;61865;50.232;18.614;2022-09-01T12:26:06;20.10;49.90
73586;DHT22;61865;50.232;18.614;2022-09-01T12:28:30;20.20;50.40
73586;DHT22;61865;50.232;18.614;2022-09-01T12:30:53;20.30;50.10
73586;DHT22;61865;50.232;18.614;2022-09-01T12:33:17;20.40;49.20
73586;DHT22;61865;50.232;18.614;2022-09-01T12:35:41;20.10;48.40
73586;DHT22;61865;50.232;18.614;2022-09-01T12:38:27;20.00;49.60
73586;DHT22;61865;50.232;18.614;2022-09-01T12:40:51;19.80;49.50
73586;DHT22;61865;50.232;18.614;2022-09-01T12:43:30;19.70;50.30
73586;DHT22;61865;50.232;18.614;2022-09-01T12:45:53;19.70;48.20
73586;DHT22;61865;50.232;18.614;2022-09-01T12:48:25;19.80;50.60
73586;DHT22;61865;50.232;18.614;2022-09-01T12:50:51;19.80;49.80
73586;DHT22;61865;50.232;18.614;2022-09-01T12:58:34;20.00;49.80
73586;DHT22;61865;50.232;18.614;2022-09-01T13:00:58;20.00;50.20
73586;DHT22;61865;50.232;18.614;2022-09-01T13:03:21;20.00;48.10
73586;DHT22;61865;50.232;18.614;2022-09-01T13:05:44;19.80;49.90
73586;DHT22;61865;50.232;18.614;2022-09-01T13:08:09;19.80;48.80
73586;DHT22;61865;50.232;18.614;2022-09-01T13:10:34;19.80;49.10
73586;DHT22;61865;50.232;18.614;2022-09-01T13:12:57;19.60;50.00
73586;DHT22;61865;50.232;18.614;2022-09-01T13:15:20;19.50;49.30
73586;DHT22;61865;50.232;18.614;2022-09-01T13:17:42;19.40;49.70
73586;DHT22;61865;50.232;18.614;2022-09-01T13:20:04;19.40;49.60
73586;DHT22;61865;50.232;18.614;2022-09-01T13:22:26;19.40;48.00
73586;DHT22;61865;50.232;18.614;2022-09-01T13:24:50;19.50;48.70
73586;DHT22;61865;50.232;18.614;2022-09-01T13:27:11;19.70;50.30
73586;DHT22;61865;50.232;18.614;2022-09-01T13:29:34;19.80;47.40
73586;DHT22;61865;50.232;18.614;2022-09-01T13:31:56;19.90;48.00
73586;DHT22;61865;50.232;18.614;2022-09-01T13:34:18;20.00;45.70
73586;DHT22;61865;50.232;18.614;2022-09-01T13:36:40;20.10;47.60
73586;DHT22;61865;50.232;18.614;2022-09-01T13:39:02;20.20;45.70
73586;DHT22;61865;50.232;18.614;2022-09-01T13:41:25;20.30;46.10
73586;DHT22;61865;50.232;18.614;2022-09-01T13:43:47;20.30;45.90
73586;DHT22;61865;50.232;18.614;2022-09-01T13:46:09;20.50;46.10
73586;DHT22;61865;50.232;18.614;2022-09-01T13:48:31;20.60;45.00
73586;DHT22;61865;50.232;18.614;2022-09-01T13:50:54;20.60;45.20
73586;DHT22;61865;50.232;18.614;2022-09-01T13:53:18;20.50;43.70
73586;DHT22;61865;50.232;18.614;2022-09-01T13:55:41;20.30;45.70
73586;DHT22;61865;50.232;18.614;2022-09-01T13:58:04;20.10;44.80
73586;DHT22;61865;50.232;18.614;2022-09-01T14:00:28;20.00;45.50
73586;DHT22;61865;50.232;18.614;2022-09-01T14:02:53;19.90;45.00
73586;DHT22;61865;50.232;18.614;2022-09-01T14:05:16;19.80;46.40
73586;DHT22;61865;50.232;18.614;2022-09-01T14:07:38;19.60;45.10
73586;DHT22;61865;50.232;18.614;2022-09-01T14:10:00;19.50;46.00
73586;DHT22;61865;50.232;18.614;2022-09-01T14:12:22;19.50;44.70
73586;DHT22;61865;50.232;18.614;2022-09-01T14:14:45;19.50;46.30
73586;DHT22;61865;50.232;18.614;2022-09-01T14:17:07;19.50;45.80
73586;DHT22;61865;50.232;18.614;2022-09-01T14:19:29;19.50;45.80
73586;DHT22;61865;50.232;18.614;2022-09-01T14:21:51;19.50;44.70
73586;DHT22;61865;50.232;18.614;2022-09-01T14:24:13;19.40;44.20
73586;DHT22;61865;50.232;18.614;2022-09-01T14:26:40;19.40;44.70
73586;DHT22;61865;50.232;18.614;2022-09-01T14:29:01;19.30;43.30
73586;DHT22;61865;50.232;18.614;2022-09-01T14:31:25;19.30;44.40
73586;DHT22;61865;50.232;18.614;2022-09-01T14:33:47;19.30;43.20
73586;DHT22;61865;50.232;18.614;2022-09-01T14:36:16;19.30;44.10
73586;DHT22;61865;50.232;18.614;2022-09-01T14:38:38;19.40;43.50
73586;DHT22;61865;50.232;18.614;2022-09-01T14:41:00;19.40;42.90
73586;DHT22;61865;50.232;18.614;2022-09-01T14:43:22;19.40;43.30
73586;DHT22;61865;50.232;18.614;2022-09-01T14:45:45;19.50;44.10
73586;DHT22;61865;50.232;18.614;2022-09-01T14:48:09;19.60;43.70
73586;DHT22;61865;50.232;18.614;2022-09-01T14:50:31;19.70;44.30
73586;DHT22;61865;50.232;18.614;2022-09-01T14:52:54;19.70;42.50
73586;DHT22;61865;50.232;18.614;2022-09-01T14:55:17;19.70;42.70
73586;DHT22;61865;50.232;18.614;2022-09-01T14:57:39;19.70;42.90
73586;DHT22;61865;50.232;18.614;2022-09-01T15:00:03;19.60;40.90
73586;DHT22;61865;50.232;18.614;2022-09-01T15:02:25;19.60;41.10
73586;DHT22;61865;50.232;18.614;2022-09-01T15:04:50;19.60;41.90
73586;DHT22;61865;50.232;18.614;2022-09-01T15:07:12;19.60;42.80
73586;DHT22;61865;50.232;18.614;2022-09-01T15:09:34;19.60;44.40
73586;DHT22;61865;50.232;18.614;2022-09-01T15:11:57;19.60;42.30